sensor_id;sensor_type;location;lat;lon;timestamp;P1;durP1;ratioP1;P2;durP2;ratioP2
66707;SDS011;53622;0.000;0.000;2023-09-12T00:00:39;4.95;;;3.72;;
66707;SDS011;53622;0.000;0.000;2023-09-12T00:03:09;3.88;;;3.50;;
66707;SDS011;53622;0.000;0.000;2023-09-12T00:05:39;4.78;;;3.53;;
66707;SDS011;53622;0.000;0.000;2023-09-12T00:08:08;3.85;;;3.55;;
66707;SDS011;53622;0.000;0.000;2023-09-12T00:10:37;6.85;;;3.70;;
66707;SDS011;53622;0.000;0.000;2023-09-12T00:13:06;4.72;;;3.58;;
66707;SDS011;53622;0.000;0.000;2023-09-12T00:15:35;4.18;;;3.60;;
66707;SDS011;53622;0.000;0.000;2023-09-12T00:18:04;3.97;;;3.67;;
66707;SDS011;53622;0.000;0.000;2023-09-12T00:20:34;4.13;;;3.72;;
66707;SDS011;53622;0.000;0.000;2023-09-12T00:23:03;4.90;;;3.60;;
66707;SDS011;53622;0.000;0.000;2023-09-12T00:25:32;4.47;;;3.75;;
66707;SDS011;53622;0.000;0.000;2023-09-12T00:28:01;4.20;;;3.17;;
66707;SDS011;53622;0.000;0.000;2023-09-12T00:30:30;4.03;;;3.60;;
66707;SDS011;53622;0.000;0.000;2023-09-12T00:32:59;4.13;;;3.83;;
66707;SDS011;53622;0.000;0.000;2023-09-12T00:35:28;4.38;;;3.95;;
66707;SDS011;53622;0.000;0.000;2023-09-12T00:37:58;4.97;;;3.72;;
66707;SDS011;53622;0.000;0.000;2023-09-12T00:40:27;4.70;;;4.30;;
66707;SDS011;53622;0.000;0.000;2023-09-12T00:42:56;4.13;;;3.75;;
66707;SDS011;53622;0.000;0.000;2023-09-12T00:45:26;5.47;;;3.55;;
66707;SDS011;53622;0.000;0.000;2023-09-12T00:47:55;4.45;;;4.00;;
66707;SDS011;53622;0.000;0.000;2023-09-12T00:50:27;4.13;;;3.72;;
66707;SDS011;53622;0.000;0.000;2023-09-12T00:52:59;4.95;;;3.85;;
66707;SDS011;53622;0.000;0.000;2023-09-12T00:55:31;3.95;;;3.55;;
66707;SDS011;53622;0.000;0.000;2023-09-12T00:58:02;5.05;;;3.70;;
66707;SDS011;53622;0.000;0.000;2023-09-12T01:00:31;9.63;;;4.20;;
66707;SDS011;53622;0.000;0.000;2023-09-12T01:03:00;6.88;;;4.13;;
66707;SDS011;53622;0.000;0.000;2023-09-12T01:05:31;4.25;;;3.70;;
66707;SDS011;53622;0.000;0.000;2023-09-12T01:08:01;4.05;;;3.75;;
66707;SDS011;53622;0.000;0.000;2023-09-12T01:10:31;3.92;;;3.63;;
66707;SDS011;53622;0.000;0.000;2023-09-12T01:13:00;4.80;;;4.15;;
66707;SDS011;53622;0.000;0.000;2023-09-12T01:15:29;4.22;;;3.80;;
66707;SDS011;53622;0.000;0.000;2023-09-12T01:17:58;6.63;;;4.05;;
66707;SDS011;53622;0.000;0.000;2023-09-12T01:20:28;4.80;;;3.92;;
66707;SDS011;53622;0.000;0.000;2023-09-12T01:23:15;4.30;;;3.90;;
66707;SDS011;53622;0.000;0.000;2023-09-12T01:26:04;5.32;;;3.50;;
66707;SDS011;53622;0.000;0.000;2023-09-12T01:28:53;6.60;;;3.90;;
66707;SDS011;53622;0.000;0.000;2023-09-12T01:31:25;3.80;;;3.50;;
66707;SDS011;53622;0.000;0.000;2023-09-12T01:33:55;8.95;;;4.00;;
66707;SDS011;53622;0.000;0.000;2023-09-12T01:36:24;7.05;;;3.72;;
66707;SDS011;53622;0.000;0.000;2023-09-12T01:38:53;4.43;;;3.67;;
66707;SDS011;53622;0.000;0.000;2023-09-12T01:41:22;4.88;;;4.05;;
66707;SDS011;53622;0.000;0.000;2023-09-12T01:43:53;13.70;;;4.10;;
66707;SDS011;53622;0.000;0.000;2023-09-12T01:46:23;4.43;;;3.65;;
66707;SDS011;53622;0.000;0.000;2023-09-12T01:48:53;5.63;;;3.55;;
66707;SDS011;53622;0.000;0.000;2023-09-12T01:51:23;5.78;;;3.63;;
66707;SDS011;53622;0.000;0.000;2023-09-12T01:53:53;4.13;;;3.35;;
66707;SDS011;53622;0.000;0.000;2023-09-12T01:56:23;5.13;;;3.80;;
66707;SDS011;53622;0.000;0.000;2023-09-12T01:58:54;4.97;;;3.72;;
66707;SDS011;53622;0.000;0.000;2023-09-12T02:01:24;4.55;;;3.90;;
66707;SDS011;53622;0.000;0.000;2023-09-12T02:03:54;4.05;;;3.65;;
66707;SDS011;53622;0.000;0.000;2023-09-12T02:06:23;4.38;;;3.80;;
66707;SDS011;53622;0.000;0.000;2023-09-12T02:08:52;5.03;;;3.75;;
66707;SDS011;53622;0.000;0.000;2023-09-12T02:11:21;4.30;;;3.90;;
66707;SDS011;53622;0.000;0.000;2023-09-12T02:13:50;8.55;;;4.07;;
66707;SDS011;53622;0.000;0.000;2023-09-12T02:16:20;6.22;;;3.58;;
66707;SDS011;53622;0.000;0.000;2023-09-12T02:18:50;4.35;;;3.78;;
66707;SDS011;53622;0.000;0.000;2023-09-12T02:21:19;7.07;;;3.70;;
66707;SDS011;53622;0.000;0.000;2023-09-12T02:23:48;4.47;;;4.05;;
66707;SDS011;53622;0.000;0.000;2023-09-12T02:26:17;6.03;;;4.20;;
66707;SDS011;53622;0.000;0.000;2023-09-12T02:28:46;4.43;;;3.85;;
66707;SDS011;53622;0.000;0.000;2023-09-12T02:31:15;4.70;;;3.75;;
66707;SDS011;53622;0.000;0.000;2023-09-12T02:33:45;4.72;;;3.85;;
66707;SDS011;53622;0.000;0.000;2023-09-12T02:36:15;4.43;;;3.67;;
66707;SDS011;53622;0.000;0.000;2023-09-12T02:38:44;3.92;;;3.55;;
66707;SDS011;53622;0.000;0.000;2023-09-12T02:41:13;3.88;;;3.55;;
66707;SDS011;53622;0.000;0.000;2023-09-12T02:43:41;6.80;;;4.45;;
66707;SDS011;53622;0.000;0.000;2023-09-12T02:46:10;4.47;;;3.45;;
66707;SDS011;53622;0.000;0.000;2023-09-12T02:48:40;4.40;;;4.00;;
66707;SDS011;53622;0.000;0.000;2023-09-12T02:51:11;4.15;;;3.47;;
66707;SDS011;53622;0.000;0.000;2023-09-12T02:53:40;4.07;;;3.72;;
66707;SDS011;53622;0.000;0.000;2023-09-12T02:56:09;4.30;;;3.90;;
66707;SDS011;53622;0.000;0.000;2023-09-12T02:58:39;4.43;;;3.42;;
66707;SDS011;53622;0.000;0.000;2023-09-12T03:01:08;5.47;;;4.05;;
66707;SDS011;53622;0.000;0.000;2023-09-12T03:03:43;4.93;;;4.30;;
66707;SDS011;53622;0.000;0.000;2023-09-12T03:06:16;6.45;;;4.30;;
66707;SDS011;53622;0.000;0.000;2023-09-12T03:08:46;5.40;;;3.47;;
66707;SDS011;53622;0.000;0.000;2023-09-12T03:11:15;5.68;;;3.95;;
66707;SDS011;53622;0.000;0.000;2023-09-12T03:13:44;4.00;;;3.70;;
66707;SDS011;53622;0.000;0.000;2023-09-12T03:16:14;4.00;;;3.67;;
66707;SDS011;53622;0.000;0.000;2023-09-12T03:18:43;4.20;;;3.45;;
66707;SDS011;53622;0.000;0.000;2023-09-12T03:21:12;4.00;;;3.70;;
66707;SDS011;53622;0.000;0.000;2023-09-12T03:23:43;5.93;;;3.92;;
66707;SDS011;53622;0.000;0.000;2023-09-12T03:26:12;4.25;;;3.83;;
66707;SDS011;53622;0.000;0.000;2023-09-12T03:28:42;4.43;;;3.45;;
66707;SDS011;53622;0.000;0.000;2023-09-12T03:31:12;7.57;;;4.03;;
66707;SDS011;53622;0.000;0.000;2023-09-12T03:33:42;4.35;;;3.85;;
66707;SDS011;53622;0.000;0.000;2023-09-12T03:36:15;5.20;;;3.80;;
66707;SDS011;53622;0.000;0.000;2023-09-12T03:38:46;5.75;;;3.65;;
66707;SDS011;53622;0.000;0.000;2023-09-12T03:41:15;4.30;;;3.85;;
66707;SDS011;53622;0.000;0.000;2023-09-12T03:43:45;5.00;;;3.85;;
66707;SDS011;53622;0.000;0.000;2023-09-12T03:46:14;4.43;;;3.90;;
66707;SDS011;53622;0.000;0.000;2023-09-12T03:48:43;4.65;;;3.90;;
66707;SDS011;53622;0.000;0.000;2023-09-12T03:51:13;5.78;;;3.58;;
66707;SDS011;53622;0.000;0.000;2023-09-12T03:53:42;3.72;;;3.42;;
66707;SDS011;53622;0.000;0.000;2023-09-12T03:56:12;3.90;;;3.55;;
66707;SDS011;53622;0.000;0.000;2023-09-12T03:58:42;5.78;;;3.50;;
66707;SDS011;53622;0.000;0.000;2023-09-12T04:01:11;3.92;;;3.63;;
66707;SDS011;53622;0.000;0.000;2023-09-12T04:03:41;6.57;;;4.13;;
66707;SDS011;53622;0.000;0.000;2023-09-12T04:06:10;3.40;;;3.15;;
66707;SDS011;53622;0.000;0.000;2023-09-12T04:08:39;4.40;;;4.03;;
66707;SDS011;53622;0.000;0.000;2023-09-12T04:11:09;4.00;;;3.53;;
66707;SDS011;53622;0.000;0.000;2023-09-12T04:13:40;4.43;;;3.85;;
66707;SDS011;53622;0.000;0.000;2023-09-12T04:16:10;3.92;;;3.63;;
66707;SDS011;53622;0.000;0.000;2023-09-12T04:18:40;6.00;;;3.97;;
66707;SDS011;53622;0.000;0.000;2023-09-12T04:21:09;4.97;;;3.88;;
66707;SDS011;53622;0.000;0.000;2023-09-12T04:23:39;6.15;;;3.70;;
66707;SDS011;53622;0.000;0.000;2023-09-12T04:26:08;4.47;;;3.45;;
66707;SDS011;53622;0.000;0.000;2023-09-12T04:28:37;4.65;;;3.90;;
66707;SDS011;53622;0.000;0.000;2023-09-12T04:31:08;5.50;;;3.90;;
66707;SDS011;53622;0.000;0.000;2023-09-12T04:33:37;3.92;;;3.60;;
66707;SDS011;53622;0.000;0.000;2023-09-12T04:36:06;4.68;;;3.38;;
66707;SDS011;53622;0.000;0.000;2023-09-12T04:38:35;4.28;;;3.50;;
66707;SDS011;53622;0.000;0.000;2023-09-12T04:41:04;4.03;;;3.53;;
66707;SDS011;53622;0.000;0.000;2023-09-12T04:43:33;4.55;;;3.88;;
66707;SDS011;53622;0.000;0.000;2023-09-12T04:46:03;4.15;;;3.58;;
66707;SDS011;53622;0.000;0.000;2023-09-12T04:48:33;4.60;;;3.70;;
66707;SDS011;53622;0.000;0.000;2023-09-12T04:51:02;5.95;;;3.83;;
66707;SDS011;53622;0.000;0.000;2023-09-12T04:53:31;4.82;;;3.97;;
66707;SDS011;53622;0.000;0.000;2023-09-12T04:56:03;4.68;;;4.00;;
66707;SDS011;53622;0.000;0.000;2023-09-12T04:58:33;4.47;;;3.92;;
66707;SDS011;53622;0.000;0.000;2023-09-12T05:01:02;7.57;;;3.92;;
66707;SDS011;53622;0.000;0.000;2023-09-12T05:03:31;5.40;;;3.63;;
66707;SDS011;53622;0.000;0.000;2023-09-12T05:06:03;4.78;;;4.20;;
66707;SDS011;53622;0.000;0.000;2023-09-12T05:08:32;4.22;;;3.70;;
66707;SDS011;53622;0.000;0.000;2023-09-12T05:11:02;4.05;;;3.72;;
66707;SDS011;53622;0.000;0.000;2023-09-12T05:13:31;4.85;;;3.70;;
66707;SDS011;53622;0.000;0.000;2023-09-12T05:16:00;8.30;;;4.32;;
66707;SDS011;53622;0.000;0.000;2023-09-12T05:18:29;4.95;;;4.35;;
66707;SDS011;53622;0.000;0.000;2023-09-12T05:20:59;4.28;;;3.88;;
66707;SDS011;53622;0.000;0.000;2023-09-12T05:23:29;4.80;;;3.70;;
66707;SDS011;53622;0.000;0.000;2023-09-12T05:25:59;5.53;;;4.13;;
66707;SDS011;53622;0.000;0.000;2023-09-12T05:28:28;5.05;;;3.95;;
66707;SDS011;53622;0.000;0.000;2023-09-12T05:30:57;4.50;;;4.10;;
66707;SDS011;53622;0.000;0.000;2023-09-12T05:33:27;4.55;;;4.00;;
66707;SDS011;53622;0.000;0.000;2023-09-12T05:35:59;4.30;;;3.70;;
66707;SDS011;53622;0.000;0.000;2023-09-12T05:38:30;5.72;;;3.85;;
66707;SDS011;53622;0.000;0.000;2023-09-12T05:40:59;3.90;;;3.53;;
66707;SDS011;53622;0.000;0.000;2023-09-12T05:43:29;4.25;;;3.85;;
66707;SDS011;53622;0.000;0.000;2023-09-12T05:45:58;4.35;;;3.72;;
66707;SDS011;53622;0.000;0.000;2023-09-12T05:48:27;4.20;;;3.80;;
66707;SDS011;53622;0.000;0.000;2023-09-12T05:50:56;4.78;;;4.28;;
66707;SDS011;53622;0.000;0.000;2023-09-12T05:53:25;5.97;;;3.60;;
66707;SDS011;53622;0.000;0.000;2023-09-12T05:55:56;4.88;;;4.13;;
66707;SDS011;53622;0.000;0.000;2023-09-12T05:58:25;4.80;;;4.20;;
66707;SDS011;53622;0.000;0.000;2023-09-12T06:00:54;4.10;;;3.70;;
66707;SDS011;53622;0.000;0.000;2023-09-12T06:03:23;4.15;;;3.75;;
66707;SDS011;53622;0.000;0.000;2023-09-12T06:05:52;7.10;;;3.38;;
66707;SDS011;53622;0.000;0.000;2023-09-12T06:08:21;4.07;;;3.67;;
66707;SDS011;53622;0.000;0.000;2023-09-12T06:10:51;3.92;;;3.63;;
66707;SDS011;53622;0.000;0.000;2023-09-12T06:13:23;3.97;;;3.63;;
66707;SDS011;53622;0.000;0.000;2023-09-12T06:15:52;3.50;;;3.20;;
66707;SDS011;53622;0.000;0.000;2023-09-12T06:18:21;4.55;;;3.97;;
66707;SDS011;53622;0.000;0.000;2023-09-12T06:20:51;3.83;;;3.53;;
66707;SDS011;53622;0.000;0.000;2023-09-12T06:23:20;3.50;;;3.20;;
66707;SDS011;53622;0.000;0.000;2023-09-12T06:25:49;4.25;;;3.85;;
66707;SDS011;53622;0.000;0.000;2023-09-12T06:28:25;4.18;;;3.78;;
66707;SDS011;53622;0.000;0.000;2023-09-12T06:30:55;4.30;;;3.90;;
66707;SDS011;53622;0.000;0.000;2023-09-12T06:33:25;3.95;;;3.28;;
66707;SDS011;53622;0.000;0.000;2023-09-12T06:35:55;3.83;;;3.53;;
66707;SDS011;53622;0.000;0.000;2023-09-12T06:38:24;3.88;;;3.45;;
66707;SDS011;53622;0.000;0.000;2023-09-12T06:40:53;3.80;;;3.50;;
66707;SDS011;53622;0.000;0.000;2023-09-12T06:43:23;4.10;;;3.70;;
66707;SDS011;53622;0.000;0.000;2023-09-12T06:45:53;4.20;;;3.38;;
66707;SDS011;53622;0.000;0.000;2023-09-12T06:48:22;4.25;;;3.55;;
66707;SDS011;53622;0.000;0.000;2023-09-12T06:50:52;3.83;;;3.53;;
66707;SDS011;53622;0.000;0.000;2023-09-12T06:53:22;3.20;;;2.90;;
66707;SDS011;53622;0.000;0.000;2023-09-12T06:55:51;3.97;;;3.65;;
66707;SDS011;53622;0.000;0.000;2023-09-12T06:58:21;4.00;;;3.70;;
66707;SDS011;53622;0.000;0.000;2023-09-12T07:00:50;3.97;;;3.67;;
66707;SDS011;53622;0.000;0.000;2023-09-12T07:03:21;3.75;;;3.45;;
66707;SDS011;53622;0.000;0.000;2023-09-12T07:05:50;3.78;;;3.40;;
66707;SDS011;53622;0.000;0.000;2023-09-12T07:08:18;3.97;;;3.30;;
66707;SDS011;53622;0.000;0.000;2023-09-12T07:10:47;3.55;;;3.25;;
66707;SDS011;53622;0.000;0.000;2023-09-12T07:13:16;4.47;;;3.38;;
66707;SDS011;53622;0.000;0.000;2023-09-12T07:15:46;3.58;;;3.28;;
66707;SDS011;53622;0.000;0.000;2023-09-12T07:18:15;3.80;;;3.50;;
66707;SDS011;53622;0.000;0.000;2023-09-12T07:20:46;3.53;;;3.22;;
66707;SDS011;53622;0.000;0.000;2023-09-12T07:23:25;3.70;;;3.40;;
66707;SDS011;53622;0.000;0.000;2023-09-12T07:25:54;3.50;;;3.20;;
66707;SDS011;53622;0.000;0.000;2023-09-12T07:28:24;3.60;;;3.30;;
66707;SDS011;53622;0.000;0.000;2023-09-12T07:30:54;3.72;;;3.38;;
66707;SDS011;53622;0.000;0.000;2023-09-12T07:33:23;3.42;;;3.13;;
66707;SDS011;53622;0.000;0.000;2023-09-12T07:35:54;3.20;;;2.97;;
66707;SDS011;53622;0.000;0.000;2023-09-12T07:38:23;3.40;;;3.10;;
66707;SDS011;53622;0.000;0.000;2023-09-12T07:40:51;3.55;;;3.25;;
66707;SDS011;53622;0.000;0.000;2023-09-12T07:43:21;3.22;;;2.92;;
66707;SDS011;53622;0.000;0.000;2023-09-12T07:45:54;3.47;;;3.17;;
66707;SDS011;53622;0.000;0.000;2023-09-12T07:48:24;3.30;;;3.03;;
66707;SDS011;53622;0.000;0.000;2023-09-12T07:50:57;3.63;;;3.33;;
66707;SDS011;53622;0.000;0.000;2023-09-12T07:53:26;3.97;;;3.20;;
66707;SDS011;53622;0.000;0.000;2023-09-12T07:55:58;3.35;;;3.05;;
66707;SDS011;53622;0.000;0.000;2023-09-12T07:58:27;3.65;;;3.10;;
66707;SDS011;53622;0.000;0.000;2023-09-12T08:00:56;3.38;;;3.08;;
66707;SDS011;53622;0.000;0.000;2023-09-12T08:03:25;3.53;;;3.22;;
66707;SDS011;53622;0.000;0.000;2023-09-12T08:05:57;3.20;;;3.00;;
66707;SDS011;53622;0.000;0.000;2023-09-12T08:08:26;3.53;;;3.20;;
66707;SDS011;53622;0.000;0.000;2023-09-12T08:10:55;3.22;;;2.92;;
66707;SDS011;53622;0.000;0.000;2023-09-12T08:13:25;3.20;;;2.90;;
66707;SDS011;53622;0.000;0.000;2023-09-12T08:15:55;3.45;;;3.22;;
66707;SDS011;53622;0.000;0.000;2023-09-12T08:18:27;3.10;;;2.90;;
66707;SDS011;53622;0.000;0.000;2023-09-12T08:20:59;3.22;;;3.03;;
66707;SDS011;53622;0.000;0.000;2023-09-12T08:23:29;3.22;;;3.03;;
66707;SDS011;53622;0.000;0.000;2023-09-12T08:25:59;3.38;;;3.10;;
66707;SDS011;53622;0.000;0.000;2023-09-12T08:28:28;3.35;;;3.08;;
66707;SDS011;53622;0.000;0.000;2023-09-12T08:30:57;3.40;;;2.92;;
66707;SDS011;53622;0.000;0.000;2023-09-12T08:33:26;3.47;;;3.17;;
66707;SDS011;53622;0.000;0.000;2023-09-12T08:35:55;3.20;;;2.90;;
66707;SDS011;53622;0.000;0.000;2023-09-12T08:38:25;3.97;;;3.58;;
66707;SDS011;53622;0.000;0.000;2023-09-12T08:40:54;3.33;;;2.90;;
66707;SDS011;53622;0.000;0.000;2023-09-12T08:43:24;3.15;;;2.95;;
66707;SDS011;53622;0.000;0.000;2023-09-12T08:45:53;3.50;;;3.20;;
66707;SDS011;53622;0.000;0.000;2023-09-12T08:48:23;3.60;;;2.80;;
66707;SDS011;53622;0.000;0.000;2023-09-12T08:50:53;3.65;;;3.35;;
66707;SDS011;53622;0.000;0.000;2023-09-12T08:53:23;3.40;;;3.20;;
66707;SDS011;53622;0.000;0.000;2023-09-12T08:55:53;3.42;;;2.90;;
66707;SDS011;53622;0.000;0.000;2023-09-12T08:58:22;3.30;;;3.00;;
66707;SDS011;53622;0.000;0.000;2023-09-12T09:00:52;4.80;;;3.03;;
66707;SDS011;53622;0.000;0.000;2023-09-12T09:03:21;2.80;;;2.60;;
66707;SDS011;53622;0.000;0.000;2023-09-12T09:05:51;3.13;;;2.92;;
66707;SDS011;53622;0.000;0.000;2023-09-12T09:08:22;2.92;;;2.70;;
66707;SDS011;53622;0.000;0.000;2023-09-12T09:10:58;3.00;;;2.80;;
66707;SDS011;53622;0.000;0.000;2023-09-12T09:13:29;3.25;;;3.05;;
66707;SDS011;53622;0.000;0.000;2023-09-12T09:16:11;3.13;;;2.92;;
66707;SDS011;53622;0.000;0.000;2023-09-12T09:18:54;3.33;;;3.03;;
66707;SDS011;53622;0.000;0.000;2023-09-12T09:21:25;3.28;;;3.05;;
66707;SDS011;53622;0.000;0.000;2023-09-12T09:23:58;3.13;;;2.92;;
66707;SDS011;53622;0.000;0.000;2023-09-12T09:26:41;3.17;;;2.97;;
66707;SDS011;53622;0.000;0.000;2023-09-12T09:29:13;4.22;;;3.17;;
66707;SDS011;53622;0.000;0.000;2023-09-12T09:31:43;3.55;;;3.25;;
66707;SDS011;53622;0.000;0.000;2023-09-12T09:34:14;3.17;;;2.97;;
66707;SDS011;53622;0.000;0.000;2023-09-12T09:36:44;3.75;;;3.42;;
66707;SDS011;53622;0.000;0.000;2023-09-12T09:39:17;3.22;;;3.00;;
66707;SDS011;53622;0.000;0.000;2023-09-12T09:41:49;3.35;;;3.05;;
66707;SDS011;53622;0.000;0.000;2023-09-12T09:44:20;3.30;;;3.08;;
66707;SDS011;53622;0.000;0.000;2023-09-12T09:46:50;2.83;;;2.63;;
66707;SDS011;53622;0.000;0.000;2023-09-12T09:49:21;3.03;;;2.83;;
66707;SDS011;53622;0.000;0.000;2023-09-12T09:51:50;2.97;;;2.78;;
66707;SDS011;53622;0.000;0.000;2023-09-12T09:54:23;3.30;;;3.05;;
66707;SDS011;53622;0.000;0.000;2023-09-12T09:56:55;3.63;;;3.33;;
66707;SDS011;53622;0.000;0.000;2023-09-12T09:59:25;2.97;;;2.78;;
66707;SDS011;53622;0.000;0.000;2023-09-12T10:01:55;3.40;;;3.20;;
66707;SDS011;53622;0.000;0.000;2023-09-12T10:04:26;3.08;;;2.88;;
66707;SDS011;53622;0.000;0.000;2023-09-12T10:06:57;3.28;;;3.08;;
66707;SDS011;53622;0.000;0.000;2023-09-12T10:09:26;2.67;;;2.47;;
66707;SDS011;53622;0.000;0.000;2023-09-12T10:11:58;2.95;;;2.75;;
66707;SDS011;53622;0.000;0.000;2023-09-12T10:14:27;3.00;;;2.80;;
66707;SDS011;53622;0.000;0.000;2023-09-12T10:17:00;2.97;;;2.78;;
66707;SDS011;53622;0.000;0.000;2023-09-12T10:19:35;3.00;;;2.80;;
66707;SDS011;53622;0.000;0.000;2023-09-12T10:22:12;3.17;;;2.88;;
66707;SDS011;53622;0.000;0.000;2023-09-12T10:24:45;2.80;;;2.60;;
66707;SDS011;53622;0.000;0.000;2023-09-12T10:27:18;2.92;;;2.70;;
66707;SDS011;53622;0.000;0.000;2023-09-12T10:29:48;3.13;;;2.92;;
66707;SDS011;53622;0.000;0.000;2023-09-12T10:32:20;2.58;;;2.38;;
66707;SDS011;53622;0.000;0.000;2023-09-12T10:34:50;3.33;;;3.03;;
66707;SDS011;53622;0.000;0.000;2023-09-12T10:37:21;2.92;;;2.70;;
66707;SDS011;53622;0.000;0.000;2023-09-12T10:39:52;2.85;;;2.65;;
66707;SDS011;53622;0.000;0.000;2023-09-12T10:42:23;3.10;;;2.90;;
66707;SDS011;53622;0.000;0.000;2023-09-12T10:44:54;2.97;;;2.78;;
66707;SDS011;53622;0.000;0.000;2023-09-12T10:47:25;3.50;;;2.70;;
66707;SDS011;53622;0.000;0.000;2023-09-12T10:49:56;2.80;;;2.60;;
66707;SDS011;53622;0.000;0.000;2023-09-12T10:52:25;2.70;;;2.50;;
66707;SDS011;53622;0.000;0.000;2023-09-12T10:54:54;2.65;;;2.45;;
66707;SDS011;53622;0.000;0.000;2023-09-12T10:57:25;3.00;;;2.80;;
66707;SDS011;53622;0.000;0.000;2023-09-12T11:02:40;2.80;;;2.60;;
66707;SDS011;53622;0.000;0.000;2023-09-12T11:08:04;2.88;;;2.67;;
66707;SDS011;53622;0.000;0.000;2023-09-12T11:10:33;2.95;;;2.75;;
66707;SDS011;53622;0.000;0.000;2023-09-12T11:13:05;2.90;;;2.70;;
66707;SDS011;53622;0.000;0.000;2023-09-12T11:21:42;2.95;;;2.75;;
66707;SDS011;53622;0.000;0.000;2023-09-12T11:24:12;2.88;;;2.67;;
66707;SDS011;53622;0.000;0.000;2023-09-12T11:26:52;2.95;;;2.72;;
66707;SDS011;53622;0.000;0.000;2023-09-12T11:29:27;3.20;;;2.88;;
66707;SDS011;53622;0.000;0.000;2023-09-12T11:31:58;2.85;;;2.65;;
66707;SDS011;53622;0.000;0.000;2023-09-12T11:34:30;3.30;;;3.00;;
66707;SDS011;53622;0.000;0.000;2023-09-12T11:37:05;3.25;;;3.00;;
66707;SDS011;53622;0.000;0.000;2023-09-12T11:39:35;3.40;;;3.10;;
66707;SDS011;53622;0.000;0.000;2023-09-12T11:42:05;3.00;;;2.80;;
66707;SDS011;53622;0.000;0.000;2023-09-12T11:44:41;2.70;;;2.50;;
66707;SDS011;53622;0.000;0.000;2023-09-12T11:47:12;2.90;;;2.70;;
66707;SDS011;53622;0.000;0.000;2023-09-12T11:49:41;2.88;;;2.67;;
66707;SDS011;53622;0.000;0.000;2023-09-12T11:52:11;3.08;;;2.88;;
66707;SDS011;53622;0.000;0.000;2023-09-12T11:54:41;2.90;;;2.70;;
66707;SDS011;53622;0.000;0.000;2023-09-12T11:57:12;3.20;;;2.88;;
66707;SDS011;53622;0.000;0.000;2023-09-12T11:59:44;3.20;;;3.00;;
66707;SDS011;53622;0.000;0.000;2023-09-12T12:02:16;3.00;;;2.80;;
66707;SDS011;53622;0.000;0.000;2023-09-12T12:04:45;3.38;;;3.17;;
66707;SDS011;53622;0.000;0.000;2023-09-12T12:07:15;2.83;;;2.63;;
66707;SDS011;53622;0.000;0.000;2023-09-12T12:09:44;2.83;;;2.63;;
66707;SDS011;53622;0.000;0.000;2023-09-12T12:12:14;3.03;;;2.83;;
66707;SDS011;53622;0.000;0.000;2023-09-12T12:14:44;3.03;;;2.83;;
66707;SDS011;53622;0.000;0.000;2023-09-12T12:17:13;2.92;;;2.72;;
66707;SDS011;53622;0.000;0.000;2023-09-12T12:19:45;3.10;;;2.90;;
66707;SDS011;53622;0.000;0.000;2023-09-12T12:22:14;3.22;;;3.03;;
66707;SDS011;53622;0.000;0.000;2023-09-12T12:24:45;2.72;;;2.53;;
66707;SDS011;53622;0.000;0.000;2023-09-12T12:27:14;2.85;;;2.65;;
66707;SDS011;53622;0.000;0.000;2023-09-12T12:29:45;2.90;;;2.70;;
66707;SDS011;53622;0.000;0.000;2023-09-12T12:32:15;2.85;;;2.65;;
66707;SDS011;53622;0.000;0.000;2023-09-12T12:34:47;3.05;;;2.85;;
66707;SDS011;53622;0.000;0.000;2023-09-12T12:37:37;2.60;;;2.42;;
66707;SDS011;53622;0.000;0.000;2023-09-12T12:40:11;3.22;;;3.03;;
66707;SDS011;53622;0.000;0.000;2023-09-12T12:42:41;2.90;;;2.70;;
66707;SDS011;53622;0.000;0.000;2023-09-12T12:45:22;3.00;;;2.78;;
66707;SDS011;53622;0.000;0.000;2023-09-12T12:47:57;3.30;;;3.10;;
66707;SDS011;53622;0.000;0.000;2023-09-12T12:50:28;2.92;;;2.72;;
66707;SDS011;53622;0.000;0.000;2023-09-12T12:52:56;3.00;;;2.80;;
66707;SDS011;53622;0.000;0.000;2023-09-12T12:55:26;3.10;;;2.90;;
66707;SDS011;53622;0.000;0.000;2023-09-12T12:57:55;3.10;;;2.90;;
66707;SDS011;53622;0.000;0.000;2023-09-12T13:00:25;3.20;;;3.00;;
66707;SDS011;53622;0.000;0.000;2023-09-12T13:02:54;3.08;;;2.88;;
66707;SDS011;53622;0.000;0.000;2023-09-12T13:05:24;2.90;;;2.70;;
66707;SDS011;53622;0.000;0.000;2023-09-12T13:07:54;3.00;;;2.80;;
66707;SDS011;53622;0.000;0.000;2023-09-12T13:10:23;3.00;;;2.80;;
66707;SDS011;53622;0.000;0.000;2023-09-12T13:12:53;2.90;;;2.70;;
66707;SDS011;53622;0.000;0.000;2023-09-12T13:15:22;2.88;;;2.67;;
66707;SDS011;53622;0.000;0.000;2023-09-12T13:17:53;3.00;;;2.80;;
66707;SDS011;53622;0.000;0.000;2023-09-12T13:20:22;2.88;;;2.67;;
66707;SDS011;53622;0.000;0.000;2023-09-12T13:22:51;3.30;;;3.00;;
66707;SDS011;53622;0.000;0.000;2023-09-12T13:25:20;2.97;;;2.78;;
66707;SDS011;53622;0.000;0.000;2023-09-12T13:27:50;3.13;;;2.78;;
66707;SDS011;53622;0.000;0.000;2023-09-12T13:30:19;3.08;;;2.88;;
66707;SDS011;53622;0.000;0.000;2023-09-12T13:32:48;3.03;;;2.83;;
66707;SDS011;53622;0.000;0.000;2023-09-12T13:35:19;3.17;;;2.92;;
66707;SDS011;53622;0.000;0.000;2023-09-12T13:37:48;3.42;;;2.75;;
66707;SDS011;53622;0.000;0.000;2023-09-12T13:40:17;3.50;;;3.20;;
66707;SDS011;53622;0.000;0.000;2023-09-12T13:42:47;3.03;;;2.83;;
66707;SDS011;53622;0.000;0.000;2023-09-12T13:45:16;3.05;;;2.85;;
66707;SDS011;53622;0.000;0.000;2023-09-12T13:47:45;2.92;;;2.70;;
66707;SDS011;53622;0.000;0.000;2023-09-12T13:50:14;3.33;;;3.13;;
66707;SDS011;53622;0.000;0.000;2023-09-12T13:52:45;3.08;;;2.88;;
66707;SDS011;53622;0.000;0.000;2023-09-12T13:55:14;2.83;;;2.63;;
66707;SDS011;53622;0.000;0.000;2023-09-12T13:58:03;3.17;;;2.97;;
66707;SDS011;53622;0.000;0.000;2023-09-12T14:00:34;3.42;;;3.13;;
66707;SDS011;53622;0.000;0.000;2023-09-12T14:03:04;3.08;;;2.88;;
66707;SDS011;53622;0.000;0.000;2023-09-12T14:05:33;3.50;;;3.20;;
66707;SDS011;53622;0.000;0.000;2023-09-12T14:08:05;3.15;;;2.90;;
66707;SDS011;53622;0.000;0.000;2023-09-12T14:10:35;2.90;;;2.70;;
66707;SDS011;53622;0.000;0.000;2023-09-12T14:13:06;3.60;;;3.30;;
66707;SDS011;53622;0.000;0.000;2023-09-12T14:15:38;2.88;;;2.67;;
66707;SDS011;53622;0.000;0.000;2023-09-12T14:18:07;3.40;;;3.15;;
66707;SDS011;53622;0.000;0.000;2023-09-12T14:20:37;3.33;;;3.00;;
66707;SDS011;53622;0.000;0.000;2023-09-12T14:23:07;3.40;;;3.10;;
66707;SDS011;53622;0.000;0.000;2023-09-12T14:25:36;3.28;;;3.08;;
66707;SDS011;53622;0.000;0.000;2023-09-12T14:28:06;3.38;;;3.17;;
66707;SDS011;53622;0.000;0.000;2023-09-12T14:30:35;3.25;;;3.05;;
66707;SDS011;53622;0.000;0.000;2023-09-12T14:33:05;3.00;;;2.80;;
66707;SDS011;53622;0.000;0.000;2023-09-12T14:35:34;3.17;;;2.97;;
66707;SDS011;53622;0.000;0.000;2023-09-12T14:38:03;3.00;;;2.80;;
66707;SDS011;53622;0.000;0.000;2023-09-12T14:40:34;3.53;;;3.30;;
66707;SDS011;53622;0.000;0.000;2023-09-12T14:43:03;3.22;;;3.03;;
66707;SDS011;53622;0.000;0.000;2023-09-12T14:45:33;3.22;;;3.00;;
66707;SDS011;53622;0.000;0.000;2023-09-12T14:48:02;3.00;;;2.80;;
66707;SDS011;53622;0.000;0.000;2023-09-12T14:50:31;3.30;;;3.00;;
66707;SDS011;53622;0.000;0.000;2023-09-12T14:53:09;3.20;;;3.00;;
66707;SDS011;53622;0.000;0.000;2023-09-12T14:55:40;3.22;;;3.03;;
66707;SDS011;53622;0.000;0.000;2023-09-12T14:58:10;3.13;;;2.92;;
66707;SDS011;53622;0.000;0.000;2023-09-12T15:00:39;3.30;;;3.10;;
66707;SDS011;53622;0.000;0.000;2023-09-12T15:03:08;3.20;;;2.95;;
66707;SDS011;53622;0.000;0.000;2023-09-12T15:05:37;3.38;;;3.17;;
66707;SDS011;53622;0.000;0.000;2023-09-12T15:08:06;14.95;;;3.40;;
66707;SDS011;53622;0.000;0.000;2023-09-12T15:10:35;7.20;;;3.60;;
66707;SDS011;53622;0.000;0.000;2023-09-12T15:13:05;9.82;;;3.60;;
66707;SDS011;53622;0.000;0.000;2023-09-12T15:15:35;11.00;;;3.70;;
66707;SDS011;53622;0.000;0.000;2023-09-12T15:18:04;9.93;;;3.60;;
66707;SDS011;53622;0.000;0.000;2023-09-12T15:20:34;7.03;;;3.38;;
66707;SDS011;53622;0.000;0.000;2023-09-12T15:23:03;6.22;;;3.38;;
66707;SDS011;53622;0.000;0.000;2023-09-12T15:25:33;4.25;;;3.08;;
66707;SDS011;53622;0.000;0.000;2023-09-12T15:28:03;3.75;;;3.35;;
66707;SDS011;53622;0.000;0.000;2023-09-12T15:30:34;4.75;;;3.28;;